createdAt,value
2018-05-17T00:14:37.834Z,98380.52
2018-05-17T00:35:11.883Z,98366.34
2018-05-17T00:55:45.925Z,98341.66
2018-05-17T01:16:18.426Z,98351.36
2018-05-17T01:58:10.572Z,98395.83
2018-05-17T02:18:47.824Z,98422.55
2018-05-17T02:39:24.675Z,98420.00
2018-05-17T03:00:02.099Z,98423.73
2018-05-17T03:20:38.296Z,98423.65
2018-05-17T03:41:12.785Z,98432.00
2018-05-17T04:02:07.881Z,98438.91
2018-05-17T04:22:40.413Z,98449.51
2018-05-17T04:43:13.217Z,98450.37
2018-05-17T05:03:48.784Z,98460.55
2018-05-17T05:24:24.082Z,98461.83
2018-05-17T05:44:58.100Z,98463.78
2018-05-17T06:05:31.220Z,98481.08
2018-05-17T06:26:06.492Z,98498.84
2018-05-17T06:46:42.692Z,98506.25
2018-05-17T07:07:21.249Z,98498.97
2018-05-17T07:27:56.483Z,98519.95
2018-05-17T07:48:30.767Z,98529.29
2018-05-17T08:09:03.910Z,98532.38
2018-05-17T08:29:40.894Z,98524.38
2018-05-17T08:50:15.382Z,98528.46
2018-05-17T09:10:46.208Z,98538.45
2018-05-17T09:31:17.484Z,98538.22
2018-05-17T09:51:52.768Z,98550.16
2018-05-17T10:12:29.568Z,98538.70
2018-05-17T10:33:05.471Z,98522.28
2018-05-17T10:53:39.506Z,98522.98
2018-05-17T11:14:14.080Z,98529.70
2018-05-17T11:34:51.180Z,98528.80
2018-05-17T11:55:23.161Z,98523.63
2018-05-17T12:15:59.360Z,98516.61
2018-05-17T12:36:32.481Z,98511.15
2018-05-17T12:57:04.028Z,98517.94
2018-05-17T13:17:36.879Z,98501.19
2018-05-17T13:38:11.227Z,98490.80
2018-05-17T14:16:56.519Z,98495.80
2018-05-17T14:37:31.730Z,98483.08
2018-05-17T14:58:06.699Z,98494.08
2018-05-17T15:18:39.141Z,98496.11
2018-05-17T15:39:14.181Z,98484.80
2018-05-17T15:59:50.369Z,98492.37
2018-05-17T16:20:24.993Z,98502.97
2018-05-17T16:41:01.833Z,98514.23
2018-05-17T17:01:37.399Z,98522.37
2018-05-17T17:22:14.574Z,98531.86
2018-05-17T17:42:46.778Z,98536.58
2018-05-17T18:03:21.692Z,98556.11
2018-05-17T18:23:59.167Z,98568.45
2018-05-17T18:44:32.238Z,98587.41
2018-05-17T19:05:05.357Z,98605.98
2018-05-17T19:25:38.856Z,98625.86
2018-05-17T19:46:15.130Z,98645.59
2018-05-17T20:06:48.105Z,98660.20
2018-05-17T20:27:24.296Z,98668.45
2018-05-17T20:48:01.442Z,98677.19
2018-05-17T21:08:34.839Z,98681.75
2018-05-17T21:29:08.887Z,98692.13
2018-05-17T21:49:43.473Z,98705.02
2018-05-17T22:10:17.694Z,98708.07
2018-05-17T22:30:51.915Z,98713.00
2018-05-17T22:51:25.334Z,98733.19
2018-05-17T23:11:59.099Z,98723.17
2018-05-17T23:32:33.566Z,98718.47
2018-05-17T23:53:07.782Z,98706.35
